sensor_id;sensor_type;location;lat;lon;timestamp;temperature;humidity
4312;DHT22;2169;49.086;9.284;2022-10-22T00:01:58;15.70;77.30
4312;DHT22;2169;49.086;9.284;2022-10-22T00:04:25;15.70;77.30
4312;DHT22;2169;49.086;9.284;2022-10-22T00:06:53;15.70;77.30
4312;DHT22;2169;49.086;9.284;2022-10-22T00:09:20;15.70;77.40
4312;DHT22;2169;49.086;9.284;2022-10-22T00:11:46;15.70;77.40
4312;DHT22;2169;49.086;9.284;2022-10-22T00:14:13;15.70;77.40
4312;DHT22;2169;49.086;9.284;2022-10-22T00:16:40;15.60;77.20
4312;DHT22;2169;49.086;9.284;2022-10-22T00:19:07;15.60;77.20
4312;DHT22;2169;49.086;9.284;2022-10-22T00:21:35;15.60;77.20
4312;DHT22;2169;49.086;9.284;2022-10-22T00:24:04;15.60;77.30
4312;DHT22;2169;49.086;9.284;2022-10-22T00:26:30;15.60;77.20
4312;DHT22;2169;49.086;9.284;2022-10-22T00:28:57;15.60;77.20
4312;DHT22;2169;49.086;9.284;2022-10-22T00:31:24;15.60;77.30
4312;DHT22;2169;49.086;9.284;2022-10-22T00:33:50;15.50;77.20
4312;DHT22;2169;49.086;9.284;2022-10-22T00:36:17;15.50;77.20
4312;DHT22;2169;49.086;9.284;2022-10-22T00:38:44;15.50;77.20
4312;DHT22;2169;49.086;9.284;2022-10-22T00:41:12;15.50;77.20
4312;DHT22;2169;49.086;9.284;2022-10-22T00:43:57;15.50;77.20
4312;DHT22;2169;49.086;9.284;2022-10-22T00:46:25;15.50;77.20
4312;DHT22;2169;49.086;9.284;2022-10-22T00:48:52;15.40;77.20
4312;DHT22;2169;49.086;9.284;2022-10-22T00:51:21;15.40;77.20
4312;DHT22;2169;49.086;9.284;2022-10-22T00:53:50;15.40;77.30
4312;DHT22;2169;49.086;9.284;2022-10-22T00:56:20;15.40;77.20
4312;DHT22;2169;49.086;9.284;2022-10-22T00:58:50;15.40;77.20
4312;DHT22;2169;49.086;9.284;2022-10-22T01:01:21;15.40;77.10
4312;DHT22;2169;49.086;9.284;2022-10-22T01:03:49;15.40;77.10
4312;DHT22;2169;49.086;9.284;2022-10-22T01:06:22;15.30;77.00
4312;DHT22;2169;49.086;9.284;2022-10-22T01:08:57;15.30;77.00
4312;DHT22;2169;49.086;9.284;2022-10-22T01:11:39;15.30;77.00
4312;DHT22;2169;49.086;9.284;2022-10-22T01:14:14;15.30;77.00
4312;DHT22;2169;49.086;9.284;2022-10-22T01:16:47;15.20;76.90
4312;DHT22;2169;49.086;9.284;2022-10-22T01:19:31;15.20;76.90
4312;DHT22;2169;49.086;9.284;2022-10-22T01:22:07;15.20;76.80
4312;DHT22;2169;49.086;9.284;2022-10-22T01:24:45;15.20;76.80
4312;DHT22;2169;49.086;9.284;2022-10-22T01:27:24;15.20;76.80
4312;DHT22;2169;49.086;9.284;2022-10-22T01:29:57;15.20;76.80
4312;DHT22;2169;49.086;9.284;2022-10-22T01:32:25;15.20;76.80
4312;DHT22;2169;49.086;9.284;2022-10-22T01:34:57;15.10;76.80
4312;DHT22;2169;49.086;9.284;2022-10-22T01:37:29;15.20;76.80
4312;DHT22;2169;49.086;9.284;2022-10-22T01:39:57;15.10;76.70
4312;DHT22;2169;49.086;9.284;2022-10-22T01:42:24;15.10;76.70
4312;DHT22;2169;49.086;9.284;2022-10-22T01:44:52;15.10;76.80
4312;DHT22;2169;49.086;9.284;2022-10-22T01:47:28;15.10;76.80
4312;DHT22;2169;49.086;9.284;2022-10-22T01:50:14;15.10;76.80
4312;DHT22;2169;49.086;9.284;2022-10-22T01:53:03;15.00;76.70
4312;DHT22;2169;49.086;9.284;2022-10-22T01:55:39;15.10;76.90
4312;DHT22;2169;49.086;9.284;2022-10-22T01:58:16;15.10;76.90
4312;DHT22;2169;49.086;9.284;2022-10-22T02:00:51;15.10;76.90
4312;DHT22;2169;49.086;9.284;2022-10-22T02:03:24;15.00;76.70
4312;DHT22;2169;49.086;9.284;2022-10-22T02:05:55;15.00;76.70
4312;DHT22;2169;49.086;9.284;2022-10-22T02:08:26;15.00;76.80
4312;DHT22;2169;49.086;9.284;2022-10-22T02:10:54;15.00;76.80
4312;DHT22;2169;49.086;9.284;2022-10-22T02:13:24;15.00;76.90
4312;DHT22;2169;49.086;9.284;2022-10-22T02:15:55;15.00;76.90
4312;DHT22;2169;49.086;9.284;2022-10-22T02:18:27;15.00;76.90
4312;DHT22;2169;49.086;9.284;2022-10-22T02:20:55;15.00;76.90
4312;DHT22;2169;49.086;9.284;2022-10-22T02:23:22;15.00;76.90
4312;DHT22;2169;49.086;9.284;2022-10-22T02:25:53;15.00;76.90
4312;DHT22;2169;49.086;9.284;2022-10-22T02:28:25;15.00;77.00
4312;DHT22;2169;49.086;9.284;2022-10-22T02:30:59;15.00;77.00
4312;DHT22;2169;49.086;9.284;2022-10-22T02:33:31;15.00;77.00
4312;DHT22;2169;49.086;9.284;2022-10-22T02:36:01;15.00;77.00
4312;DHT22;2169;49.086;9.284;2022-10-22T02:38:29;15.00;77.00
4312;DHT22;2169;49.086;9.284;2022-10-22T02:40:57;14.90;77.10
4312;DHT22;2169;49.086;9.284;2022-10-22T02:43:24;14.90;77.10
4312;DHT22;2169;49.086;9.284;2022-10-22T02:45:51;14.90;77.10
4312;DHT22;2169;49.086;9.284;2022-10-22T02:48:19;14.90;77.10
4312;DHT22;2169;49.086;9.284;2022-10-22T02:50:46;14.90;77.20
4312;DHT22;2169;49.086;9.284;2022-10-22T02:53:12;14.90;77.20
4312;DHT22;2169;49.086;9.284;2022-10-22T02:55:39;14.90;77.20
4312;DHT22;2169;49.086;9.284;2022-10-22T02:58:06;14.90;77.30
4312;DHT22;2169;49.086;9.284;2022-10-22T03:00:32;14.90;77.40
4312;DHT22;2169;49.086;9.284;2022-10-22T03:02:59;14.90;77.30
4312;DHT22;2169;49.086;9.284;2022-10-22T03:05:27;14.90;77.40
4312;DHT22;2169;49.086;9.284;2022-10-22T03:07:54;14.90;77.40
4312;DHT22;2169;49.086;9.284;2022-10-22T03:10:21;14.80;77.30
4312;DHT22;2169;49.086;9.284;2022-10-22T03:12:47;14.80;77.40
4312;DHT22;2169;49.086;9.284;2022-10-22T03:15:14;14.80;77.30
4312;DHT22;2169;49.086;9.284;2022-10-22T03:17:41;14.80;77.40
4312;DHT22;2169;49.086;9.284;2022-10-22T03:20:08;14.80;77.30
4312;DHT22;2169;49.086;9.284;2022-10-22T03:22:38;14.80;77.40
4312;DHT22;2169;49.086;9.284;2022-10-22T03:25:09;14.70;77.40
4312;DHT22;2169;49.086;9.284;2022-10-22T03:27:38;14.70;77.50
4312;DHT22;2169;49.086;9.284;2022-10-22T03:30:07;14.70;77.50
4312;DHT22;2169;49.086;9.284;2022-10-22T03:32:33;14.70;77.50
4312;DHT22;2169;49.086;9.284;2022-10-22T03:35:00;14.70;77.50
4312;DHT22;2169;49.086;9.284;2022-10-22T03:37:27;14.70;77.50
4312;DHT22;2169;49.086;9.284;2022-10-22T03:39:56;14.70;77.50
4312;DHT22;2169;49.086;9.284;2022-10-22T03:42:23;14.70;77.60
4312;DHT22;2169;49.086;9.284;2022-10-22T03:44:50;14.70;77.50
4312;DHT22;2169;49.086;9.284;2022-10-22T03:47:17;14.70;77.50
4312;DHT22;2169;49.086;9.284;2022-10-22T03:49:44;14.70;77.50
4312;DHT22;2169;49.086;9.284;2022-10-22T03:52:12;14.70;77.60
4312;DHT22;2169;49.086;9.284;2022-10-22T03:54:40;14.60;77.50
4312;DHT22;2169;49.086;9.284;2022-10-22T03:57:09;14.60;78.20
4312;DHT22;2169;49.086;9.284;2022-10-22T03:59:37;14.60;77.50
4312;DHT22;2169;49.086;9.284;2022-10-22T04:02:04;14.60;77.50
4312;DHT22;2169;49.086;9.284;2022-10-22T04:04:31;14.60;77.50
4312;DHT22;2169;49.086;9.284;2022-10-22T04:06:58;14.60;77.60
4312;DHT22;2169;49.086;9.284;2022-10-22T04:09:25;14.60;77.60
4312;DHT22;2169;49.086;9.284;2022-10-22T04:11:51;14.60;77.60
4312;DHT22;2169;49.086;9.284;2022-10-22T04:14:20;14.60;77.60
4312;DHT22;2169;49.086;9.284;2022-10-22T04:16:46;14.60;77.60
4312;DHT22;2169;49.086;9.284;2022-10-22T04:19:13;14.60;77.60
4312;DHT22;2169;49.086;9.284;2022-10-22T04:21:40;14.60;77.50
4312;DHT22;2169;49.086;9.284;2022-10-22T04:24:07;14.60;77.50
4312;DHT22;2169;49.086;9.284;2022-10-22T04:26:34;14.60;77.50
4312;DHT22;2169;49.086;9.284;2022-10-22T04:29:01;14.60;77.60
4312;DHT22;2169;49.086;9.284;2022-10-22T04:31:29;14.60;77.70
4312;DHT22;2169;49.086;9.284;2022-10-22T04:33:57;14.60;77.60
4312;DHT22;2169;49.086;9.284;2022-10-22T04:36:25;14.60;77.70
4312;DHT22;2169;49.086;9.284;2022-10-22T04:38:54;14.60;77.70
4312;DHT22;2169;49.086;9.284;2022-10-22T04:41:22;14.60;77.70
4312;DHT22;2169;49.086;9.284;2022-10-22T04:43:49;14.60;77.70
4312;DHT22;2169;49.086;9.284;2022-10-22T04:46:17;14.60;77.70
4312;DHT22;2169;49.086;9.284;2022-10-22T04:48:45;14.60;77.70
4312;DHT22;2169;49.086;9.284;2022-10-22T04:51:15;14.60;77.70
4312;DHT22;2169;49.086;9.284;2022-10-22T04:53:43;14.50;77.60
4312;DHT22;2169;49.086;9.284;2022-10-22T04:56:12;14.60;77.70
4312;DHT22;2169;49.086;9.284;2022-10-22T04:58:40;14.50;77.60
4312;DHT22;2169;49.086;9.284;2022-10-22T05:01:11;14.50;77.60
4312;DHT22;2169;49.086;9.284;2022-10-22T05:03:38;14.50;77.60
4312;DHT22;2169;49.086;9.284;2022-10-22T05:06:07;14.50;77.60
4312;DHT22;2169;49.086;9.284;2022-10-22T05:08:34;14.50;77.70
4312;DHT22;2169;49.086;9.284;2022-10-22T05:11:09;14.50;77.60
4312;DHT22;2169;49.086;9.284;2022-10-22T05:13:36;14.50;77.60
4312;DHT22;2169;49.086;9.284;2022-10-22T05:16:03;14.40;77.40
4312;DHT22;2169;49.086;9.284;2022-10-22T05:18:33;14.40;77.50
4312;DHT22;2169;49.086;9.284;2022-10-22T05:21:00;14.40;77.50
4312;DHT22;2169;49.086;9.284;2022-10-22T05:23:28;14.30;77.40
4312;DHT22;2169;49.086;9.284;2022-10-22T05:25:55;14.30;77.40
4312;DHT22;2169;49.086;9.284;2022-10-22T05:28:22;14.30;77.40
4312;DHT22;2169;49.086;9.284;2022-10-22T05:30:52;14.30;77.40
4312;DHT22;2169;49.086;9.284;2022-10-22T05:33:19;14.20;77.20
4312;DHT22;2169;49.086;9.284;2022-10-22T05:35:46;14.20;77.20
4312;DHT22;2169;49.086;9.284;2022-10-22T05:38:13;14.20;77.20
4312;DHT22;2169;49.086;9.284;2022-10-22T05:40:41;14.20;77.10
4312;DHT22;2169;49.086;9.284;2022-10-22T05:43:08;14.10;77.00
4312;DHT22;2169;49.086;9.284;2022-10-22T05:45:36;14.10;77.00
4312;DHT22;2169;49.086;9.284;2022-10-22T05:48:03;14.10;77.00
4312;DHT22;2169;49.086;9.284;2022-10-22T05:50:30;14.10;77.00
4312;DHT22;2169;49.086;9.284;2022-10-22T05:52:56;14.00;76.90
4312;DHT22;2169;49.086;9.284;2022-10-22T05:55:23;14.00;76.80
4312;DHT22;2169;49.086;9.284;2022-10-22T05:57:51;14.00;76.80
4312;DHT22;2169;49.086;9.284;2022-10-22T06:00:18;13.90;76.70
4312;DHT22;2169;49.086;9.284;2022-10-22T06:02:48;13.90;76.80
4312;DHT22;2169;49.086;9.284;2022-10-22T06:05:15;13.90;76.70
4312;DHT22;2169;49.086;9.284;2022-10-22T06:07:42;13.90;76.80
4312;DHT22;2169;49.086;9.284;2022-10-22T06:10:13;13.80;76.70
4312;DHT22;2169;49.086;9.284;2022-10-22T06:12:41;13.80;76.80
4312;DHT22;2169;49.086;9.284;2022-10-22T06:15:11;13.80;76.80
4312;DHT22;2169;49.086;9.284;2022-10-22T06:17:37;13.80;76.80
4312;DHT22;2169;49.086;9.284;2022-10-22T06:20:05;13.70;76.80
4312;DHT22;2169;49.086;9.284;2022-10-22T06:22:32;13.70;76.80
4312;DHT22;2169;49.086;9.284;2022-10-22T06:24:59;13.70;76.80
4312;DHT22;2169;49.086;9.284;2022-10-22T06:27:26;13.80;77.00
4312;DHT22;2169;49.086;9.284;2022-10-22T06:29:54;13.70;77.60
4312;DHT22;2169;49.086;9.284;2022-10-22T06:32:22;13.70;77.00
4312;DHT22;2169;49.086;9.284;2022-10-22T06:34:48;13.70;77.00
4312;DHT22;2169;49.086;9.284;2022-10-22T06:37:15;13.70;77.00
4312;DHT22;2169;49.086;9.284;2022-10-22T06:39:42;13.70;77.10
4312;DHT22;2169;49.086;9.284;2022-10-22T06:42:09;13.70;77.20
4312;DHT22;2169;49.086;9.284;2022-10-22T06:44:36;13.70;77.30
4312;DHT22;2169;49.086;9.284;2022-10-22T06:47:02;13.70;77.40
4312;DHT22;2169;49.086;9.284;2022-10-22T06:49:30;13.70;77.50
4312;DHT22;2169;49.086;9.284;2022-10-22T06:51:57;13.70;77.60
4312;DHT22;2169;49.086;9.284;2022-10-22T06:54:24;13.70;77.60
4312;DHT22;2169;49.086;9.284;2022-10-22T06:56:51;13.70;77.70
4312;DHT22;2169;49.086;9.284;2022-10-22T06:59:17;13.80;77.90
4312;DHT22;2169;49.086;9.284;2022-10-22T07:01:44;13.80;77.90
4312;DHT22;2169;49.086;9.284;2022-10-22T07:04:11;13.80;78.00
4312;DHT22;2169;49.086;9.284;2022-10-22T07:06:39;13.80;78.00
4312;DHT22;2169;49.086;9.284;2022-10-22T07:09:06;13.80;78.20
4312;DHT22;2169;49.086;9.284;2022-10-22T07:11:38;13.80;78.30
4312;DHT22;2169;49.086;9.284;2022-10-22T07:14:06;13.90;78.40
4312;DHT22;2169;49.086;9.284;2022-10-22T07:16:32;13.90;78.50
4312;DHT22;2169;49.086;9.284;2022-10-22T07:18:59;13.90;78.50
4312;DHT22;2169;49.086;9.284;2022-10-22T07:21:27;13.90;78.60
4312;DHT22;2169;49.086;9.284;2022-10-22T07:23:55;14.00;78.80
4312;DHT22;2169;49.086;9.284;2022-10-22T07:26:25;14.00;78.90
4312;DHT22;2169;49.086;9.284;2022-10-22T07:28:55;14.00;79.00
4312;DHT22;2169;49.086;9.284;2022-10-22T07:31:22;14.10;79.10
4312;DHT22;2169;49.086;9.284;2022-10-22T07:33:49;14.10;79.20
4312;DHT22;2169;49.086;9.284;2022-10-22T07:36:16;14.10;79.30
4312;DHT22;2169;49.086;9.284;2022-10-22T07:38:43;14.20;79.40
4312;DHT22;2169;49.086;9.284;2022-10-22T07:41:12;14.20;79.40
4312;DHT22;2169;49.086;9.284;2022-10-22T07:43:38;14.20;79.50
4312;DHT22;2169;49.086;9.284;2022-10-22T07:46:05;14.30;79.70
4312;DHT22;2169;49.086;9.284;2022-10-22T07:48:33;14.30;79.70
4312;DHT22;2169;49.086;9.284;2022-10-22T07:51:00;14.30;79.70
4312;DHT22;2169;49.086;9.284;2022-10-22T07:53:27;14.40;79.90
4312;DHT22;2169;49.086;9.284;2022-10-22T07:55:53;14.40;79.90
4312;DHT22;2169;49.086;9.284;2022-10-22T07:58:23;14.50;80.00
4312;DHT22;2169;49.086;9.284;2022-10-22T08:00:50;14.50;80.00
4312;DHT22;2169;49.086;9.284;2022-10-22T08:03:20;14.60;80.10
4312;DHT22;2169;49.086;9.284;2022-10-22T08:05:47;14.60;80.10
4312;DHT22;2169;49.086;9.284;2022-10-22T08:08:14;14.70;80.20
4312;DHT22;2169;49.086;9.284;2022-10-22T08:10:42;14.70;80.30
4312;DHT22;2169;49.086;9.284;2022-10-22T08:13:09;14.80;80.40
4312;DHT22;2169;49.086;9.284;2022-10-22T08:15:37;14.90;80.50
4312;DHT22;2169;49.086;9.284;2022-10-22T08:18:04;15.00;80.60
4312;DHT22;2169;49.086;9.284;2022-10-22T08:20:31;15.10;80.70
4312;DHT22;2169;49.086;9.284;2022-10-22T08:22:58;15.10;80.60
4312;DHT22;2169;49.086;9.284;2022-10-22T08:25:26;15.20;80.60
4312;DHT22;2169;49.086;9.284;2022-10-22T08:27:53;15.20;80.50
4312;DHT22;2169;49.086;9.284;2022-10-22T08:30:19;15.30;80.50
4312;DHT22;2169;49.086;9.284;2022-10-22T08:32:48;15.30;80.40
4312;DHT22;2169;49.086;9.284;2022-10-22T08:35:14;15.30;80.20
4312;DHT22;2169;49.086;9.284;2022-10-22T08:37:41;15.40;80.10
4312;DHT22;2169;49.086;9.284;2022-10-22T08:40:18;15.40;79.90
4312;DHT22;2169;49.086;9.284;2022-10-22T08:45:42;15.60;79.90
4312;DHT22;2169;49.086;9.284;2022-10-22T08:48:26;15.60;79.80
4312;DHT22;2169;49.086;9.284;2022-10-22T08:50:56;15.70;79.90
4312;DHT22;2169;49.086;9.284;2022-10-22T08:53:27;15.80;79.90
4312;DHT22;2169;49.086;9.284;2022-10-22T08:55:56;15.90;79.80
4312;DHT22;2169;49.086;9.284;2022-10-22T08:58:30;16.00;79.90
4312;DHT22;2169;49.086;9.284;2022-10-22T09:01:02;16.10;79.70
4312;DHT22;2169;49.086;9.284;2022-10-22T09:03:38;16.10;79.50
4312;DHT22;2169;49.086;9.284;2022-10-22T09:06:10;16.30;79.50
4312;DHT22;2169;49.086;9.284;2022-10-22T09:08:38;16.40;79.40
4312;DHT22;2169;49.086;9.284;2022-10-22T09:11:13;16.50;79.30
4312;DHT22;2169;49.086;9.284;2022-10-22T09:13:43;16.60;79.20
4312;DHT22;2169;49.086;9.284;2022-10-22T09:16:15;16.70;79.00
4312;DHT22;2169;49.086;9.284;2022-10-22T09:18:51;16.80;78.80
4312;DHT22;2169;49.086;9.284;2022-10-22T09:21:27;16.90;78.70
4312;DHT22;2169;49.086;9.284;2022-10-22T09:24:02;17.00;78.50
4312;DHT22;2169;49.086;9.284;2022-10-22T09:26:31;17.10;78.30
4312;DHT22;2169;49.086;9.284;2022-10-22T09:28:59;17.20;78.10
4312;DHT22;2169;49.086;9.284;2022-10-22T09:31:29;17.30;77.90
4312;DHT22;2169;49.086;9.284;2022-10-22T09:33:58;17.40;77.70
4312;DHT22;2169;49.086;9.284;2022-10-22T09:36:30;17.50;77.30
4312;DHT22;2169;49.086;9.284;2022-10-22T09:38:58;17.60;77.20
4312;DHT22;2169;49.086;9.284;2022-10-22T09:41:27;17.70;77.00
4312;DHT22;2169;49.086;9.284;2022-10-22T09:43:57;17.70;76.60
4312;DHT22;2169;49.086;9.284;2022-10-22T09:46:27;17.80;76.40
4312;DHT22;2169;49.086;9.284;2022-10-22T09:49:01;17.80;76.10
4312;DHT22;2169;49.086;9.284;2022-10-22T09:51:40;17.90;75.90
4312;DHT22;2169;49.086;9.284;2022-10-22T09:54:15;18.00;75.80
4312;DHT22;2169;49.086;9.284;2022-10-22T09:56:48;18.00;75.70
4312;DHT22;2169;49.086;9.284;2022-10-22T09:59:17;18.10;75.50
4312;DHT22;2169;49.086;9.284;2022-10-22T10:01:45;18.10;75.30
4312;DHT22;2169;49.086;9.284;2022-10-22T10:04:14;18.20;75.20
4312;DHT22;2169;49.086;9.284;2022-10-22T10:06:43;18.30;75.10
4312;DHT22;2169;49.086;9.284;2022-10-22T10:09:14;18.30;74.90
4312;DHT22;2169;49.086;9.284;2022-10-22T10:11:45;18.40;74.80
4312;DHT22;2169;49.086;9.284;2022-10-22T10:14:19;18.50;74.60
4312;DHT22;2169;49.086;9.284;2022-10-22T10:16:55;18.50;74.50
4312;DHT22;2169;49.086;9.284;2022-10-22T10:19:37;18.60;74.30
4312;DHT22;2169;49.086;9.284;2022-10-22T10:22:13;18.70;74.00
4312;DHT22;2169;49.086;9.284;2022-10-22T10:25:00;18.70;73.60
4312;DHT22;2169;49.086;9.284;2022-10-22T10:27:35;18.70;73.50
4312;DHT22;2169;49.086;9.284;2022-10-22T10:30:09;18.80;73.40
4312;DHT22;2169;49.086;9.284;2022-10-22T10:32:50;18.80;73.20
4312;DHT22;2169;49.086;9.284;2022-10-22T10:35:25;18.90;72.90
4312;DHT22;2169;49.086;9.284;2022-10-22T10:38:07;18.90;72.50
4312;DHT22;2169;49.086;9.284;2022-10-22T10:40:41;19.00;72.10
4312;DHT22;2169;49.086;9.284;2022-10-22T10:43:14;19.00;71.80
4312;DHT22;2169;49.086;9.284;2022-10-22T10:45:53;19.10;71.80
4312;DHT22;2169;49.086;9.284;2022-10-22T10:48:32;19.10;71.60
4312;DHT22;2169;49.086;9.284;2022-10-22T10:51:07;19.20;71.30
4312;DHT22;2169;49.086;9.284;2022-10-22T10:53:50;19.30;71.10
4312;DHT22;2169;49.086;9.284;2022-10-22T10:56:35;19.30;70.90
4312;DHT22;2169;49.086;9.284;2022-10-22T10:59:12;19.40;70.60
4312;DHT22;2169;49.086;9.284;2022-10-22T11:01:50;19.40;70.40
4312;DHT22;2169;49.086;9.284;2022-10-22T11:04:49;19.40;70.20
4312;DHT22;2169;49.086;9.284;2022-10-22T11:07:25;19.50;70.00
4312;DHT22;2169;49.086;9.284;2022-10-22T11:09:56;19.50;69.90
4312;DHT22;2169;49.086;9.284;2022-10-22T11:12:27;19.50;69.70
4312;DHT22;2169;49.086;9.284;2022-10-22T11:14:59;19.60;69.60
4312;DHT22;2169;49.086;9.284;2022-10-22T11:17:31;19.60;69.40
4312;DHT22;2169;49.086;9.284;2022-10-22T11:20:04;19.60;69.10
4312;DHT22;2169;49.086;9.284;2022-10-22T11:22:37;19.60;69.10
4312;DHT22;2169;49.086;9.284;2022-10-22T11:25:14;19.70;69.10
4312;DHT22;2169;49.086;9.284;2022-10-22T11:27:46;19.70;68.90
4312;DHT22;2169;49.086;9.284;2022-10-22T11:30:16;19.70;68.60
4312;DHT22;2169;49.086;9.284;2022-10-22T11:32:47;19.80;68.50
4312;DHT22;2169;49.086;9.284;2022-10-22T11:35:17;19.80;68.30
4312;DHT22;2169;49.086;9.284;2022-10-22T11:37:47;19.80;68.00
4312;DHT22;2169;49.086;9.284;2022-10-22T11:40:18;19.90;68.00
4312;DHT22;2169;49.086;9.284;2022-10-22T11:42:48;19.90;67.80
4312;DHT22;2169;49.086;9.284;2022-10-22T11:45:30;19.90;67.70
4312;DHT22;2169;49.086;9.284;2022-10-22T11:47:59;20.00;67.50
4312;DHT22;2169;49.086;9.284;2022-10-22T11:50:44;20.00;67.40
4312;DHT22;2169;49.086;9.284;2022-10-22T11:53:20;20.10;67.90
4312;DHT22;2169;49.086;9.284;2022-10-22T11:55:48;20.10;66.90
4312;DHT22;2169;49.086;9.284;2022-10-22T11:58:30;20.10;66.50
4312;DHT22;2169;49.086;9.284;2022-10-22T12:01:22;20.10;66.20
4312;DHT22;2169;49.086;9.284;2022-10-22T12:04:13;20.10;66.20
4312;DHT22;2169;49.086;9.284;2022-10-22T12:06:55;20.10;66.00
4312;DHT22;2169;49.086;9.284;2022-10-22T12:09:24;20.10;65.80
4312;DHT22;2169;49.086;9.284;2022-10-22T12:12:01;20.10;65.70
4312;DHT22;2169;49.086;9.284;2022-10-22T12:14:32;20.20;65.70
4312;DHT22;2169;49.086;9.284;2022-10-22T12:17:07;20.20;65.60
4312;DHT22;2169;49.086;9.284;2022-10-22T12:19:36;20.20;65.30
4312;DHT22;2169;49.086;9.284;2022-10-22T12:22:12;20.20;65.30
4312;DHT22;2169;49.086;9.284;2022-10-22T12:24:43;20.30;65.20
4312;DHT22;2169;49.086;9.284;2022-10-22T12:27:16;20.30;65.00
4312;DHT22;2169;49.086;9.284;2022-10-22T12:29:44;20.30;65.00
4312;DHT22;2169;49.086;9.284;2022-10-22T12:32:13;20.30;65.00
4312;DHT22;2169;49.086;9.284;2022-10-22T12:34:45;20.40;64.90
4312;DHT22;2169;49.086;9.284;2022-10-22T12:37:13;20.40;64.70
4312;DHT22;2169;49.086;9.284;2022-10-22T12:39:41;20.50;64.70
4312;DHT22;2169;49.086;9.284;2022-10-22T12:42:12;20.50;64.70
4312;DHT22;2169;49.086;9.284;2022-10-22T12:44:39;20.50;64.50
4312;DHT22;2169;49.086;9.284;2022-10-22T12:47:07;20.50;64.40
4312;DHT22;2169;49.086;9.284;2022-10-22T12:49:37;20.50;64.20
4312;DHT22;2169;49.086;9.284;2022-10-22T12:52:06;20.50;63.90
4312;DHT22;2169;49.086;9.284;2022-10-22T12:54:37;20.60;64.00
4312;DHT22;2169;49.086;9.284;2022-10-22T12:57:12;20.50;63.70
4312;DHT22;2169;49.086;9.284;2022-10-22T12:59:42;20.60;63.50
4312;DHT22;2169;49.086;9.284;2022-10-22T13:02:16;20.60;63.50
4312;DHT22;2169;49.086;9.284;2022-10-22T13:05:09;20.60;63.40
4312;DHT22;2169;49.086;9.284;2022-10-22T13:07:41;20.60;63.20
4312;DHT22;2169;49.086;9.284;2022-10-22T13:10:16;20.60;63.20
4312;DHT22;2169;49.086;9.284;2022-10-22T13:12:49;20.60;63.00
4312;DHT22;2169;49.086;9.284;2022-10-22T13:15:32;20.60;62.90
4312;DHT22;2169;49.086;9.284;2022-10-22T13:18:04;20.60;62.70
4312;DHT22;2169;49.086;9.284;2022-10-22T13:20:32;20.60;62.80
4312;DHT22;2169;49.086;9.284;2022-10-22T13:23:03;20.60;62.80
4312;DHT22;2169;49.086;9.284;2022-10-22T13:25:31;20.60;62.70
4312;DHT22;2169;49.086;9.284;2022-10-22T13:28:01;20.60;62.50
4312;DHT22;2169;49.086;9.284;2022-10-22T13:30:31;20.60;62.30
4312;DHT22;2169;49.086;9.284;2022-10-22T13:32:59;20.60;62.30
4312;DHT22;2169;49.086;9.284;2022-10-22T13:35:29;20.60;62.20
4312;DHT22;2169;49.086;9.284;2022-10-22T13:37:57;20.60;62.20
4312;DHT22;2169;49.086;9.284;2022-10-22T13:40:24;20.60;62.10
4312;DHT22;2169;49.086;9.284;2022-10-22T13:42:52;20.60;62.00
4312;DHT22;2169;49.086;9.284;2022-10-22T13:45:20;20.60;62.00
4312;DHT22;2169;49.086;9.284;2022-10-22T13:47:49;20.60;61.80
4312;DHT22;2169;49.086;9.284;2022-10-22T13:50:18;20.60;61.80
4312;DHT22;2169;49.086;9.284;2022-10-22T13:52:48;20.60;61.70
4312;DHT22;2169;49.086;9.284;2022-10-22T13:55:18;20.60;61.60
4312;DHT22;2169;49.086;9.284;2022-10-22T13:57:45;20.60;61.50
4312;DHT22;2169;49.086;9.284;2022-10-22T14:00:14;20.60;61.50
4312;DHT22;2169;49.086;9.284;2022-10-22T14:02:43;20.60;61.50
4312;DHT22;2169;49.086;9.284;2022-10-22T14:05:11;20.60;61.60
4312;DHT22;2169;49.086;9.284;2022-10-22T14:07:38;20.60;61.50
4312;DHT22;2169;49.086;9.284;2022-10-22T14:10:13;20.60;61.40
4312;DHT22;2169;49.086;9.284;2022-10-22T14:12:40;20.70;61.20
4312;DHT22;2169;49.086;9.284;2022-10-22T14:15:09;20.60;61.20
4312;DHT22;2169;49.086;9.284;2022-10-22T14:17:37;20.60;61.00
4312;DHT22;2169;49.086;9.284;2022-10-22T14:20:08;20.60;60.90
4312;DHT22;2169;49.086;9.284;2022-10-22T14:22:35;20.60;60.90
4312;DHT22;2169;49.086;9.284;2022-10-22T14:25:02;20.60;60.80
4312;DHT22;2169;49.086;9.284;2022-10-22T14:27:29;20.60;60.80
4312;DHT22;2169;49.086;9.284;2022-10-22T14:29:55;20.60;61.40
4312;DHT22;2169;49.086;9.284;2022-10-22T14:32:22;20.60;60.80
4312;DHT22;2169;49.086;9.284;2022-10-22T14:34:49;20.60;60.50
4312;DHT22;2169;49.086;9.284;2022-10-22T14:37:19;20.50;60.30
4312;DHT22;2169;49.086;9.284;2022-10-22T14:39:48;20.50;60.30
4312;DHT22;2169;49.086;9.284;2022-10-22T14:42:24;20.50;60.50
4312;DHT22;2169;49.086;9.284;2022-10-22T14:44:51;20.50;60.50
4312;DHT22;2169;49.086;9.284;2022-10-22T14:47:18;20.60;60.60
4312;DHT22;2169;49.086;9.284;2022-10-22T14:49:45;20.50;60.50
4312;DHT22;2169;49.086;9.284;2022-10-22T14:52:12;20.50;60.50
4312;DHT22;2169;49.086;9.284;2022-10-22T14:54:40;20.60;60.60
4312;DHT22;2169;49.086;9.284;2022-10-22T14:57:08;20.60;60.70
4312;DHT22;2169;49.086;9.284;2022-10-22T14:59:35;20.60;60.60
4312;DHT22;2169;49.086;9.284;2022-10-22T15:02:02;20.50;60.70
4312;DHT22;2169;49.086;9.284;2022-10-22T15:04:29;20.50;60.70
4312;DHT22;2169;49.086;9.284;2022-10-22T15:06:56;20.50;60.60
4312;DHT22;2169;49.086;9.284;2022-10-22T15:09:23;20.60;60.70
4312;DHT22;2169;49.086;9.284;2022-10-22T15:11:51;20.50;60.70
4312;DHT22;2169;49.086;9.284;2022-10-22T15:14:18;20.50;60.70
4312;DHT22;2169;49.086;9.284;2022-10-22T15:16:45;20.50;60.80
4312;DHT22;2169;49.086;9.284;2022-10-22T15:19:11;20.50;60.90
4312;DHT22;2169;49.086;9.284;2022-10-22T15:21:39;20.50;61.00
4312;DHT22;2169;49.086;9.284;2022-10-22T15:24:05;20.50;61.20
4312;DHT22;2169;49.086;9.284;2022-10-22T15:26:33;20.50;61.40
4312;DHT22;2169;49.086;9.284;2022-10-22T15:29:03;20.50;61.60
4312;DHT22;2169;49.086;9.284;2022-10-22T15:31:47;20.50;61.70
4312;DHT22;2169;49.086;9.284;2022-10-22T15:34:18;20.50;61.80
4312;DHT22;2169;49.086;9.284;2022-10-22T15:36:45;20.50;61.90
4312;DHT22;2169;49.086;9.284;2022-10-22T15:39:12;20.40;62.00
4312;DHT22;2169;49.086;9.284;2022-10-22T15:41:39;20.40;62.10
4312;DHT22;2169;49.086;9.284;2022-10-22T15:44:12;20.40;62.30
4312;DHT22;2169;49.086;9.284;2022-10-22T15:46:39;20.40;62.60
4312;DHT22;2169;49.086;9.284;2022-10-22T15:49:06;20.30;62.80
4312;DHT22;2169;49.086;9.284;2022-10-22T15:51:33;20.30;63.10
4312;DHT22;2169;49.086;9.284;2022-10-22T15:54:00;20.30;63.20
4312;DHT22;2169;49.086;9.284;2022-10-22T15:56:27;20.30;63.40
4312;DHT22;2169;49.086;9.284;2022-10-22T15:58:56;20.20;63.40
4312;DHT22;2169;49.086;9.284;2022-10-22T16:01:25;20.20;63.60
4312;DHT22;2169;49.086;9.284;2022-10-22T16:03:53;20.10;63.80
4312;DHT22;2169;49.086;9.284;2022-10-22T16:06:25;20.00;63.90
4312;DHT22;2169;49.086;9.284;2022-10-22T16:08:52;19.90;64.10
4312;DHT22;2169;49.086;9.284;2022-10-22T16:11:20;19.80;64.30
4312;DHT22;2169;49.086;9.284;2022-10-22T16:13:46;19.70;64.40
4312;DHT22;2169;49.086;9.284;2022-10-22T16:16:13;19.60;64.50
4312;DHT22;2169;49.086;9.284;2022-10-22T16:18:41;19.60;64.80
4312;DHT22;2169;49.086;9.284;2022-10-22T16:21:11;19.50;64.80
4312;DHT22;2169;49.086;9.284;2022-10-22T16:23:38;19.50;64.90